Time;durP1;ratioP1;P1;durP2;ratioP2;P2;SDS_P1;SDS_P2;PMS_P1;PMS_P2;Temp;Humidity;BMP_temperature;BMP_pressure;BME280_temperature;BME280_humidity;BME280_pressure;Samples;Min_cycle;Max_cycle;Signal;HPM_P1;HPM_P2
2023/07/04 00:01:20;;;;;;;2.85;1.10;;;;;;;12.81;72.77;98959.25;5027137;28;20050;-60
2023/07/04 00:03:50;;;;;;;4.30;1.67;;;;;;;12.78;72.85;98968.03;5027637;28;20018;-59
2023/07/04 00:06:17;;;;;;;3.58;1.17;;;;;;;12.71;73.04;98964.00;5027587;28;20026;-60
2023/07/04 00:08:43;;;;;;;11.18;1.52;;;;;;;12.63;73.14;98951.28;5009981;28;20022;-60
2023/07/04 00:11:09;;;;;;;1.70;0.90;;;;;;;12.63;73.06;98959.97;5027261;28;20025;-59
2023/07/04 00:13:37;;;;;;;1.55;0.95;;;;;;;12.63;73.29;98965.16;5027346;28;20061;-61
2023/07/04 00:16:05;;;;;;;6.22;1.02;;;;;;;12.68;73.34;98961.53;5027086;28;20018;-60
2023/07/04 00:18:31;;;;;;;10.57;1.65;;;;;;;12.69;73.20;98958.84;5027264;28;20026;-60
2023/07/04 00:20:58;;;;;;;5.75;1.42;;;;;;;12.74;73.13;98950.84;5026557;28;20049;-60
2023/07/04 00:23:33;;;;;;;1.55;1.10;;;;;;;12.80;73.05;98962.75;5027147;28;20077;-61
2023/07/04 00:26:00;;;;;;;3.75;0.70;;;;;;;12.85;73.32;98955.63;5026944;28;20033;-60
2023/07/04 00:28:26;;;;;;;2.53;1.02;;;;;;;12.89;73.41;98952.00;5027046;28;20025;-61
2023/07/04 00:30:54;;;;;;;1.65;0.85;;;;;;;12.88;73.62;98963.31;5027022;28;20056;-59
2023/07/04 00:33:25;;;;;;;4.05;1.55;;;;;;;12.83;73.57;98957.44;5027133;28;20034;-60
2023/07/04 00:36:03;;;;;;;9.65;1.88;;;;;;;12.81;73.66;98961.88;5027043;28;20024;-59
2023/07/04 00:38:32;;;;;;;10.13;1.15;;;;;;;12.82;73.50;98956.59;5027046;28;20030;-60
2023/07/04 00:41:01;;;;;;;7.57;1.75;;;;;;;12.80;73.89;98955.81;5027131;28;20049;-61
2023/07/04 00:43:45;;;;;;;3.35;1.20;;;;;;;12.82;74.76;98951.38;5025644;28;20106;-60
2023/07/04 00:46:15;;;;;;;2.45;1.13;;;;;;;12.86;74.73;98950.34;5026590;28;20046;-59
2023/07/04 00:48:44;;;;;;;1.20;0.88;;;;;;;12.91;74.64;98938.91;5026806;28;20105;-60
2023/07/04 00:51:21;;;;;;;3.60;1.15;;;;;;;12.92;74.72;98943.19;5026652;28;20083;-59
2023/07/04 00:53:49;;;;;;;7.10;1.90;;;;;;;12.99;74.69;98942.88;5026690;28;20492;-60
2023/07/04 00:56:15;;;;;;;2.97;1.58;;;;;;;12.98;74.52;98940.31;5026661;28;20025;-60
2023/07/04 00:58:43;;;;;;;4.88;1.73;;;;;;;13.01;74.50;98948.00;5026416;28;20081;-59
2023/07/04 01:01:09;;;;;;;2.45;1.27;;;;;;;12.98;74.94;98940.31;5026533;28;20040;-59
2023/07/04 01:03:34;;;;;;;1.38;0.95;;;;;;;12.99;74.85;98945.47;5026414;28;20413;-60
2023/07/04 01:06:24;;;;;;;8.73;0.70;;;;;;;12.95;75.48;98943.91;5026134;28;20026;-59
2023/07/04 01:08:56;;;;;;;8.20;1.25;;;;;;;12.95;75.13;98936.09;5026479;28;20033;-59
2023/07/04 01:11:30;;;;;;;3.30;1.23;;;;;;;12.93;75.68;98935.31;5026321;28;20025;-59
2023/07/04 01:13:56;;;;;;;3.03;1.20;;;;;;;12.88;75.62;98935.50;5026638;28;20061;-61
2023/07/04 01:16:23;;;;;;;1.02;0.93;;;;;;;12.82;75.71;98938.38;5026212;28;20026;-60
2023/07/04 01:18:53;;;;;;;3.05;1.00;;;;;;;12.78;75.81;98931.56;5026254;28;20112;-59
2023/07/04 01:21:22;;;;;;;5.10;1.17;;;;;;;12.75;75.66;98932.56;5026337;28;20105;-59
2023/07/04 01:23:59;;;;;;;4.20;0.77;;;;;;;12.75;75.42;98929.97;5026256;28;20023;-63
2023/07/04 01:26:32;;;;;;;4.90;1.23;;;;;;;12.69;75.38;98932.81;5026174;28;20045;-59
2023/07/04 01:29:00;;;;;;;2.60;0.93;;;;;;;12.66;75.45;98925.13;5026131;28;20108;-60
2023/07/04 01:31:29;;;;;;;2.03;1.00;;;;;;;12.66;75.55;98934.69;5026127;28;20022;-60
2023/07/04 01:33:56;;;;;;;2.00;1.08;;;;;;;12.62;75.59;98924.41;5026051;28;20049;-60
2023/07/04 01:36:25;;;;;;;9.23;1.30;;;;;;;12.61;75.62;98925.31;5025898;28;20018;-60
2023/07/04 01:38:52;;;;;;;6.32;1.50;;;;;;;12.55;76.10;98922.97;5025804;28;20044;-60
2023/07/04 01:41:18;;;;;;;3.92;0.70;;;;;;;12.56;75.99;98929.00;5025885;28;20262;-60
2023/07/04 01:44:07;;;;;;;8.27;1.58;;;;;;;12.52;75.64;98916.13;5025927;28;20109;-60
2023/07/04 01:46:34;;;;;;;9.60;2.50;;;;;;;12.50;75.56;98920.56;5025322;28;20077;-60
2023/07/04 01:49:00;;;;;;;5.07;1.52;;;;;;;12.46;75.99;98918.97;5025641;28;20096;-61
2023/07/04 01:51:32;;;;;;;4.18;1.38;;;;;;;12.46;76.29;98910.34;5025474;28;20069;-60
2023/07/04 01:53:58;;;;;;;3.40;0.70;;;;;;;12.45;76.11;98914.69;5024492;28;20033;-60
2023/07/04 01:56:24;;;;;;;11.63;1.58;;;;;;;12.43;76.46;98920.88;5025510;28;20026;-60
2023/07/04 01:58:50;;;;;;;1.27;0.98;;;;;;;12.42;76.31;98913.94;5025367;28;20125;-60
2023/07/04 02:01:16;;;;;;;8.40;2.25;;;;;;;12.43;76.32;98913.06;5025309;28;20038;-61
2023/07/04 02:03:41;;;;;;;6.45;1.38;;;;;;;12.44;76.32;98912.13;5025358;28;20025;-60
2023/07/04 02:06:07;;;;;;;10.65;1.70;;;;;;;12.52;75.98;98916.13;5025635;28;20049;-60
2023/07/04 02:08:33;;;;;;;1.67;1.00;;;;;;;12.54;76.27;98908.25;5007921;28;20055;-60
2023/07/04 02:10:58;;;;;;;4.22;0.93;;;;;;;12.60;76.57;98909.75;5025346;28;20089;-60
2023/07/04 02:13:24;;;;;;;1.02;0.70;;;;;;;12.63;76.42;98917.44;5025314;28;20021;-60
2023/07/04 02:15:49;;;;;;;11.88;1.63;;;;;;;12.66;76.66;98912.13;5025348;28;20549;-59
2023/07/04 02:18:15;;;;;;;2.05;0.85;;;;;;;12.69;76.54;98909.38;5025024;28;20067;-61
2023/07/04 02:20:41;;;;;;;1.45;1.30;;;;;;;12.68;76.89;98902.50;5025164;28;20025;-60
2023/07/04 02:23:06;;;;;;;6.78;1.35;;;;;;;12.64;76.87;98901.75;5025018;28;20021;-61
2023/07/04 02:25:32;;;;;;;2.28;1.27;;;;;;;12.67;77.27;98910.38;5024939;28;20040;-61
2023/07/04 02:27:57;;;;;;;3.45;1.40;;;;;;;12.68;76.87;98907.69;5007543;28;20029;-60
2023/07/04 02:30:23;;;;;;;5.28;1.33;;;;;;;12.71;76.93;98904.97;5024845;28;20025;-60
2023/07/04 02:32:48;;;;;;;6.30;1.48;;;;;;;12.69;76.88;98911.13;5025104;28;20474;-60
2023/07/04 02:35:14;;;;;;;6.72;3.75;;;;;;;12.68;76.80;98912.06;5025137;28;20491;-60
2023/07/04 02:37:40;;;;;;;4.13;1.73;;;;;;;12.59;76.93;98906.31;5025102;28;20099;-60
2023/07/04 02:40:06;;;;;;;4.53;2.13;;;;;;;12.55;77.18;98904.75;5007279;28;20076;-59
2023/07/04 02:42:31;;;;;;;10.50;2.30;;;;;;;12.53;77.01;98911.75;5025140;28;20030;-59
2023/07/04 02:44:56;;;;;;;4.13;1.33;;;;;;;12.51;77.21;98903.16;5030935;28;20029;-59
2023/07/04 02:47:26;;;;;;;4.70;0.98;;;;;;;12.49;77.22;98905.81;5031505;28;20056;-60
2023/07/04 02:49:54;;;;;;;5.32;1.23;;;;;;;12.46;77.29;98903.34;5031289;28;20446;-60
2023/07/04 02:52:21;;;;;;;0.75;0.52;;;;;;;12.45;77.10;98904.28;5031358;28;20026;-61
2023/07/04 02:54:46;;;;;;;4.57;1.40;;;;;;;12.48;77.09;98900.69;5031439;28;20026;-60
2023/07/04 02:57:16;;;;;;;0.93;0.75;;;;;;;12.52;76.91;98910.09;5031074;28;20057;-59
2023/07/04 02:59:41;;;;;;;2.25;1.00;;;;;;;12.51;76.90;98898.81;5031285;28;20030;-60
2023/07/04 03:02:07;;;;;;;7.47;1.25;;;;;;;12.56;76.62;98903.81;5031481;28;20068;-60
2023/07/04 03:04:32;;;;;;;3.25;1.38;;;;;;;12.58;76.53;98899.41;5031106;28;20025;-60
2023/07/04 03:06:57;;;;;;;16.67;1.55;;;;;;;12.62;76.54;98895.75;5031127;28;20112;-59
2023/07/04 03:09:24;;;;;;;3.03;1.23;;;;;;;12.69;76.69;98906.78;5031322;28;20029;-60
2023/07/04 03:11:50;;;;;;;2.78;0.77;;;;;;;12.74;76.46;98896.16;5030988;28;20025;-61
2023/07/04 03:14:15;;;;;;;4.63;1.08;;;;;;;12.85;76.53;98895.72;5030879;28;20021;-59
2023/07/04 03:16:41;;;;;;;2.75;1.55;;;;;;;13.01;76.21;98885.50;5031303;28;20017;-62
2023/07/04 03:19:06;;;;;;;3.50;1.35;;;;;;;13.28;76.25;98893.00;5013461;28;20018;-60
2023/07/04 03:21:32;;;;;;;4.57;0.90;;;;;;;13.59;75.24;98896.91;5030831;28;20378;-60
2023/07/04 03:23:57;;;;;;;0.55;0.55;;;;;;;13.90;74.60;98880.75;5031171;28;20113;-60
2023/07/04 03:26:22;;;;;;;4.93;1.13;;;;;;;14.32;73.86;98886.59;5031042;28;20026;-60
2023/07/04 03:28:48;;;;;;;3.45;1.42;;;;;;;14.68;72.92;98885.69;5031039;28;20025;-60
2023/07/04 03:31:13;;;;;;;3.92;1.38;;;;;;;15.01;71.00;98878.03;5031028;28;20065;-60
2023/07/04 03:33:39;;;;;;;9.65;2.20;;;;;;;15.29;70.13;98881.84;5031050;28;20040;-60
2023/07/04 03:36:06;;;;;;;2.95;1.35;;;;;;;15.58;69.04;98880.28;5030999;28;20022;-60
2023/07/04 03:38:31;;;;;;;7.60;1.52;;;;;;;15.88;69.10;98867.38;5013137;28;20022;-61
2023/07/04 03:40:58;;;;;;;9.57;1.17;;;;;;;16.28;69.06;98873.00;5031093;28;20081;-60
2023/07/04 03:43:24;;;;;;;2.28;1.33;;;;;;;16.58;66.77;98872.16;5030757;28;20021;-62
2023/07/04 03:45:49;;;;;;;8.23;2.60;;;;;;;16.56;63.59;98866.19;5030678;28;20081;-60
2023/07/04 03:48:15;;;;;;;8.70;1.27;;;;;;;16.33;63.11;98870.97;5030960;28;20041;-61
2023/07/04 03:50:40;;;;;;;4.78;1.20;;;;;;;16.29;64.27;98861.63;5030981;28;20017;-60
2023/07/04 03:53:07;;;;;;;2.80;1.15;;;;;;;16.47;63.95;98869.31;5030852;28;20032;-60
2023/07/04 03:55:33;;;;;;;4.47;1.45;;;;;;;16.70;64.38;98868.00;5027879;28;20124;-60
2023/07/04 03:57:58;;;;;;;7.20;1.60;;;;;;;16.95;62.67;98865.69;5027363;28;20057;-59
2023/07/04 04:00:23;;;;;;;5.55;1.23;;;;;;;17.18;62.12;98853.84;5027491;28;20022;-60
2023/07/04 04:02:49;;;;;;;7.25;1.33;;;;;;;17.60;61.85;98866.19;5027698;28;20061;-60
2023/07/04 04:05:14;;;;;;;4.60;1.23;;;;;;;17.92;61.02;98865.91;5027301;28;20041;-60
2023/07/04 04:07:40;;;;;;;10.20;1.73;;;;;;;18.35;61.88;98866.75;5027349;28;20036;-62
2023/07/04 04:10:06;;;;;;;5.05;1.60;;;;;;;18.90;59.43;98868.38;5027695;28;20054;-62
2023/07/04 04:12:31;;;;;;;0.90;0.80;;;;;;;19.16;56.74;98865.78;5027242;28;20482;-63
2023/07/04 04:14:56;;;;;;;2.08;1.13;;;;;;;18.77;54.86;98871.03;5027458;28;20026;-62
2023/07/04 04:17:22;;;;;;;5.60;1.08;;;;;;;18.07;55.67;98865.88;5027448;28;20347;-62
2023/07/04 04:19:47;;;;;;;1.05;0.60;;;;;;;17.41;56.71;98871.75;5027220;28;20022;-62
2023/07/04 04:22:14;;;;;;;3.53;0.93;;;;;;;16.78;58.47;98869.31;5027389;28;20036;-62
2023/07/04 04:24:40;;;;;;;2.50;1.13;;;;;;;16.32;59.97;98868.44;5027055;28;20082;-62
2023/07/04 04:27:08;;;;;;;3.08;1.60;;;;;;;16.22;62.12;98862.88;5027242;28;20026;-62
2023/07/04 04:29:34;;;;;;;3.75;1.50;;;;;;;16.25;62.34;98872.31;5026921;28;20378;-61
2023/07/04 04:32:00;;;;;;;6.70;1.38;;;;;;;16.44;62.63;98879.97;5027341;28;20021;-61
2023/07/04 04:34:26;;;;;;;1.25;1.05;;;;;;;16.71;62.24;98877.53;5026813;28;20026;-61
2023/07/04 04:36:52;;;;;;;2.60;0.70;;;;;;;17.07;61.43;98872.84;5026927;28;20064;-62
2023/07/04 04:39:17;;;;;;;2.63;1.15;;;;;;;17.55;61.53;98884.00;5027195;28;20057;-61
2023/07/04 04:41:43;;;;;;;5.03;0.90;;;;;;;17.81;59.30;98869.22;5027124;28;20086;-61
2023/07/04 04:44:08;;;;;;;1.92;0.90;;;;;;;17.91;58.32;98876.50;5026946;28;20116;-62
2023/07/04 04:46:34;;;;;;;3.70;0.80;;;;;;;17.90;57.30;98874.84;5026729;28;20025;-63
2023/07/04 04:49:03;;;;;;;5.22;1.00;;;;;;;17.69;57.22;98873.47;5026849;28;20168;-62
2023/07/04 04:51:29;;;;;;;0.95;0.47;;;;;;;17.79;57.15;98873.75;5026585;28;20026;-62
2023/07/04 04:53:55;;;;;;;8.50;0.95;;;;;;;17.92;56.44;98865.91;5026824;28;20021;-61
2023/07/04 04:56:20;;;;;;;2.28;0.60;;;;;;;18.23;56.78;98881.50;5026836;28;20029;-62
2023/07/04 04:58:46;;;;;;;6.75;1.08;;;;;;;18.88;55.94;98873.75;5026734;28;20038;-63
2023/07/04 05:01:22;;;;;;;2.08;0.70;;;;;;;19.22;52.87;98872.44;5026503;28;20033;-63
2023/07/04 05:03:53;;;;;;;0.68;0.52;;;;;;;19.45;52.75;98873.44;5008979;28;20029;-63
2023/07/04 05:06:20;;;;;;;2.97;1.20;;;;;;;19.66;51.71;98876.38;5026206;28;20030;-62
2023/07/04 05:08:47;;;;;;;4.18;0.95;;;;;;;19.54;51.90;98885.09;5026481;28;20026;-63
2023/07/04 05:11:13;;;;;;;2.22;0.70;;;;;;;19.71;52.19;98886.56;5026577;28;20024;-63
2023/07/04 05:13:39;;;;;;;12.38;1.10;;;;;;;19.84;50.17;98883.03;5026223;28;20061;-63
2023/07/04 05:16:08;;;;;;;4.05;0.90;;;;;;;19.55;50.85;98885.00;5026234;28;20022;-62
2023/07/04 05:18:34;;;;;;;9.23;1.10;;;;;;;19.56;52.27;98884.06;5026400;28;20037;-62
2023/07/04 05:21:08;;;;;;;3.17;0.70;;;;;;;20.17;51.74;98878.94;5026173;28;20124;-65
2023/07/04 05:23:36;;;;;;;2.28;0.63;;;;;;;20.47;49.83;98885.53;5026192;28;20064;-62
2023/07/04 05:26:03;;;;;;;3.75;0.80;;;;;;;20.69;49.44;98876.00;5025685;28;20576;-61
2023/07/04 05:28:29;;;;;;;1.45;0.80;;;;;;;20.93;48.33;98886.53;5026033;28;20022;-61
2023/07/04 05:31:04;;;;;;;1.70;0.80;;;;;;;21.08;48.38;98880.19;5025966;28;20018;-61
2023/07/04 05:33:29;;;;;;;3.08;0.90;;;;;;;20.80;47.43;98888.38;5026036;28;20037;-60
2023/07/04 05:36:07;;;;;;;2.90;0.77;;;;;;;20.21;48.09;98893.56;5025998;28;20022;-62
2023/07/04 05:38:33;;;;;;;2.63;1.20;;;;;;;19.71;49.44;98898.88;5025617;28;20026;-62
2023/07/04 05:40:58;;;;;;;1.33;0.45;;;;;;;19.73;50.80;98905.69;5026011;28;20022;-61
2023/07/04 05:43:24;;;;;;;0.65;0.50;;;;;;;20.14;50.14;98902.88;5025992;28;20036;-61
2023/07/04 05:45:51;;;;;;;1.25;0.57;;;;;;;19.98;48.60;98893.44;5025820;28;20026;-61
2023/07/04 05:48:16;;;;;;;1.23;0.77;;;;;;;19.43;49.02;98899.88;5025991;28;20021;-61
2023/07/04 05:51:02;;;;;;;5.22;1.00;;;;;;;19.18;51.36;98901.59;5025956;28;20049;-61
2023/07/04 05:53:30;;;;;;;1.45;0.82;;;;;;;19.59;51.04;98903.19;5025937;28;20081;-61
2023/07/04 05:56:05;;;;;;;0.75;0.57;;;;;;;19.50;49.41;98899.44;5025884;28;20017;-62
2023/07/04 05:58:30;;;;;;;0.95;0.50;;;;;;;19.09;50.34;98904.81;5025686;28;20069;-62
2023/07/04 06:00:59;;;;;;;0.75;0.60;;;;;;;18.60;51.01;98903.69;5025584;28;20037;-62
2023/07/04 06:03:26;;;;;;;1.05;0.93;;;;;;;18.13;52.16;98904.06;5025837;28;20033;-61
2023/07/04 06:05:52;;;;;;;2.78;0.73;;;;;;;17.94;52.86;98894.69;5025541;28;20030;-62
2023/07/04 06:08:17;;;;;;;7.15;1.02;;;;;;;17.72;53.23;98901.31;5025668;28;20025;-61
2023/07/04 06:10:42;;;;;;;0.60;0.55;;;;;;;17.41;54.25;98903.22;5025720;28;20022;-61
2023/07/04 06:13:08;;;;;;;3.38;0.52;;;;;;;17.13;55.33;98902.25;5025577;28;20026;-61
2023/07/04 06:15:40;;;;;;;3.17;1.02;;;;;;;16.92;56.44;98894.69;5025523;28;20488;-61
2023/07/04 06:18:06;;;;;;;1.85;1.02;;;;;;;16.83;57.48;98896.94;5024859;28;20036;-61
2023/07/04 06:20:31;;;;;;;0.68;0.60;;;;;;;16.73;57.65;98894.03;5025420;28;20025;-62
2023/07/04 06:22:57;;;;;;;3.80;0.65;;;;;;;16.71;57.79;98902.88;5025373;28;20445;-60
2023/07/04 06:25:22;;;;;;;5.70;0.80;;;;;;;16.80;58.29;98904.13;5025357;28;20026;-61
2023/07/04 06:27:47;;;;;;;1.95;0.90;;;;;;;16.71;58.54;98900.28;5025227;28;20046;-60
2023/07/04 06:30:13;;;;;;;5.05;0.95;;;;;;;16.60;58.40;98904.38;5025283;28;20053;-62
2023/07/04 06:32:39;;;;;;;5.63;1.00;;;;;;;16.50;59.12;98907.59;5025337;28;20029;-62
2023/07/04 06:35:05;;;;;;;2.78;0.77;;;;;;;16.39;59.83;98910.84;5025257;28;20017;-62
2023/07/04 06:37:30;;;;;;;1.92;0.52;;;;;;;16.29;60.00;98914.00;5025198;28;20566;-63
2023/07/04 06:39:56;;;;;;;3.65;0.90;;;;;;;16.13;60.54;98915.75;5025178;28;20053;-62
2023/07/04 06:42:21;;;;;;;3.47;1.10;;;;;;;15.97;60.96;98911.34;5023676;28;20032;-62
2023/07/04 06:44:46;;;;;;;1.25;1.00;;;;;;;15.73;61.23;98909.16;5024897;28;20406;-61
2023/07/04 06:47:12;;;;;;;2.00;0.73;;;;;;;15.65;61.83;98927.03;5025179;28;20021;-62
2023/07/04 06:49:37;;;;;;;8.32;1.10;;;;;;;15.53;62.75;98928.53;5025118;28;20108;-61
2023/07/04 06:52:03;;;;;;;10.15;1.17;;;;;;;15.47;63.13;98924.44;5025084;28;20025;-61
2023/07/04 06:54:29;;;;;;;4.22;1.02;;;;;;;15.40;63.26;98926.53;5007376;28;20026;-61
2023/07/04 06:56:54;;;;;;;3.17;0.88;;;;;;;15.36;63.60;98928.50;5024667;28;20050;-60
2023/07/04 06:59:19;;;;;;;0.77;0.43;;;;;;;15.31;63.97;98935.72;5025177;28;20071;-60
2023/07/04 07:01:45;;;;;;;6.90;0.85;;;;;;;15.33;64.13;98938.25;5024914;28;20022;-61
2023/07/04 07:04:12;;;;;;;1.40;0.88;;;;;;;15.45;64.58;98940.22;5025061;28;20022;-60
2023/07/04 07:06:39;;;;;;;2.42;1.30;;;;;;;15.62;64.50;98941.13;5024991;28;20053;-61
2023/07/04 07:09:08;;;;;;;5.60;1.17;;;;;;;15.89;64.20;98931.84;5024663;28;20022;-61
2023/07/04 07:11:33;;;;;;;5.07;1.20;;;;;;;16.23;63.92;98930.00;5025128;28;20153;-61
2023/07/04 07:13:59;;;;;;;0.80;0.63;;;;;;;16.63;63.07;98934.78;5025011;28;20446;-62
2023/07/04 07:16:25;;;;;;;1.60;0.90;;;;;;;17.00;61.52;98939.66;5024898;28;20029;-61
2023/07/04 07:18:53;;;;;;;2.20;1.15;;;;;;;17.59;62.03;98938.81;5024862;28;20545;-61
2023/07/04 07:21:21;;;;;;;2.08;0.80;;;;;;;18.02;58.30;98952.00;5025010;28;20036;-61
2023/07/04 07:23:48;;;;;;;2.97;0.95;;;;;;;18.20;56.88;98942.13;5024894;28;20426;-62
2023/07/04 07:26:18;;;;;;;2.47;0.90;;;;;;;18.23;56.42;98947.16;5024936;28;20046;-62
2023/07/04 07:28:43;;;;;;;1.25;0.88;;;;;;;18.23;54.87;98949.81;5024626;28;20157;-62
2023/07/04 07:31:28;;;;;;;2.55;0.85;;;;;;;18.36;54.81;98956.88;5028251;28;20029;-62
2023/07/04 07:33:53;;;;;;;0.63;0.60;;;;;;;18.87;53.16;98955.34;5028833;28;20052;-62
2023/07/04 07:36:32;;;;;;;0.47;0.47;;;;;;;18.94;51.28;98946.13;5028339;28;20017;-62
2023/07/04 07:38:59;;;;;;;0.50;0.43;;;;;;;18.62;52.21;98941.22;5028470;28;20037;-62
2023/07/04 07:41:28;;;;;;;6.88;0.85;;;;;;;18.16;53.13;98944.09;5046760;23;20127;-69
2023/07/04 07:43:53;;;;;;;0.85;0.65;;;;;;;17.82;54.45;98951.44;5087627;28;20027;-67
2023/07/04 07:46:19;;;;;;;0.75;0.55;;;;;;;17.65;55.12;98942.00;5107608;28;20111;-68
2023/07/04 07:48:46;;;;;;;2.22;0.80;;;;;;;17.61;54.91;98943.97;5108218;28;20024;-69
2023/07/04 07:51:12;;;;;;;5.68;0.80;;;;;;;17.47;55.69;98944.81;5108287;28;20081;-68
2023/07/04 07:53:43;;;;;;;0.65;0.50;;;;;;;17.65;55.97;98949.88;5108192;28;20024;-68
2023/07/04 07:56:10;;;;;;;2.33;1.00;;;;;;;17.98;55.22;98945.22;5108038;28;20020;-67
2023/07/04 07:58:36;;;;;;;1.98;1.38;;;;;;;17.85;54.31;98943.38;5107844;28;20107;-68
2023/07/04 08:01:17;;;;;;;4.20;1.42;;;;;;;17.72;55.24;98945.91;5107868;28;20031;-69
2023/07/04 08:03:43;;;;;;;0.60;0.60;;;;;;;17.78;54.88;98948.16;5107989;28;20024;-68
2023/07/04 08:06:19;;;;;;;1.02;0.80;;;;;;;17.59;55.05;98944.06;5107828;28;20465;-67
2023/07/04 08:08:45;;;;;;;2.28;1.00;;;;;;;17.28;55.60;98938.06;5107873;28;20024;-68
2023/07/04 08:11:14;;;;;;;2.00;0.77;;;;;;;16.82;57.76;98949.47;5112683;22;20063;-61
2023/07/04 08:13:40;;;;;;;3.08;1.05;;;;;;;16.48;59.47;98952.22;5107643;28;20024;-62
2023/07/04 08:16:05;;;;;;;0.70;0.60;;;;;;;16.50;60.52;98950.38;5107863;28;20027;-62
2023/07/04 08:18:31;;;;;;;1.25;0.80;;;;;;;16.56;60.17;98954.41;5107727;28;20020;-62
2023/07/04 08:21:01;;;;;;;1.73;1.05;;;;;;;16.63;59.68;98960.16;5107696;28;20467;-62
2023/07/04 08:23:28;;;;;;;4.68;1.17;;;;;;;16.98;59.39;98958.09;5107933;28;20144;-62
2023/07/04 08:25:54;;;;;;;2.50;0.75;;;;;;;17.20;57.41;98959.47;5089385;28;20020;-61
2023/07/04 08:28:21;;;;;;;0.38;0.38;;;;;;;17.18;56.60;98971.00;5107449;28;20028;-61
2023/07/04 08:30:47;;;;;;;1.00;0.70;;;;;;;17.18;57.10;98974.47;5107463;28;20028;-63
2023/07/04 08:33:16;;;;;;;0.50;0.50;;;;;;;17.33;56.41;98951.72;5107619;28;20024;-63
2023/07/04 08:35:53;;;;;;;2.80;0.70;;;;;;;17.54;55.79;98964.47;5107447;28;20027;-65
2023/07/04 08:38:19;;;;;;;1.60;0.80;;;;;;;17.69;54.69;98951.34;5107572;28;20079;-62
2023/07/04 08:40:45;;;;;;;8.25;0.90;;;;;;;18.00;54.38;98970.47;5088557;28;20031;-61
2023/07/04 08:43:12;;;;;;;2.05;1.38;;;;;;;18.13;54.29;98962.66;5106908;28;20020;-62
2023/07/04 08:45:38;;;;;;;2.78;0.60;;;;;;;18.05;53.57;98968.38;5088770;28;20028;-62
2023/07/04 08:48:04;;;;;;;2.50;0.80;;;;;;;17.76;53.92;98968.44;5107163;28;20027;-62
2023/07/04 08:50:35;;;;;;;1.38;0.50;;;;;;;17.49;55.03;98969.19;5107194;28;20020;-61
2023/07/04 08:53:17;;;;;;;1.50;1.08;;;;;;;17.37;55.64;98975.13;5107144;28;20070;-60
2023/07/04 08:56:08;;;;;;;;;;;;;;;17.19;56.45;98980.53;5107644;28;20020;-61
2023/07/04 08:59:02;;;;;;;1.60;0.77;;;;;;;16.81;57.62;98980.06;5101716;28;20396;-60
2023/07/04 09:02:19;;;;;;;0.40;0.40;;;;;;;16.65;59.46;98979.22;5106680;28;20050;-61
2023/07/04 09:05:03;;;;;;;0.32;0.32;;;;;;;16.47;61.09;98971.47;5106966;28;20024;-60
2023/07/04 09:07:37;;;;;;;3.50;0.75;;;;;;;16.33;61.12;98983.59;5106953;28;20034;-61
2023/07/04 09:10:02;;;;;;;1.05;0.68;;;;;;;16.26;61.97;98989.25;5106950;28;20028;-61
2023/07/04 09:12:34;;;;;;;1.63;0.63;;;;;;;16.23;62.14;98979.75;5106486;28;20056;-60
2023/07/04 09:15:27;;;;;;;4.80;1.17;;;;;;;16.17;62.51;98990.56;5106696;28;20042;-61
2023/07/04 09:18:03;;;;;;;7.53;1.25;;;;;;;16.14;62.98;98990.75;5106765;28;20035;-60
2023/07/04 09:20:42;;;;;;;3.10;1.42;;;;;;;16.06;63.36;98994.63;5106703;28;20024;-62
2023/07/04 09:23:17;;;;;;;2.35;1.13;;;;;;;16.62;63.76;98993.34;5088377;28;20024;-63
2023/07/04 09:25:42;;;;;;;1.27;1.00;;;;;;;17.55;60.78;98976.69;5106547;28;20024;-61
2023/07/04 09:28:08;;;;;;;2.10;0.63;;;;;;;18.04;58.88;98982.47;5094689;23;20052;-69
2023/07/04 09:30:33;;;;;;;4.32;1.50;;;;;;;17.95;57.56;98990.91;5085473;28;20024;-68
2023/07/04 09:32:59;;;;;;;3.38;0.75;;;;;;;17.75;57.97;98997.41;5105899;28;20048;-68
2023/07/04 09:35:24;;;;;;;1.63;0.73;;;;;;;17.67;58.47;98998.69;5106236;28;20050;-69
2023/07/04 09:38:01;;;;;;;2.53;0.82;;;;;;;17.68;58.31;98991.66;5088016;28;20036;-68
2023/07/04 09:40:48;;;;;;;7.25;0.90;;;;;;;17.56;58.81;98996.72;5106244;28;20063;-67
2023/07/04 09:43:30;;;;;;;0.98;0.50;;;;;;;17.46;59.33;99000.81;5106041;28;20053;-68
2023/07/04 09:46:29;;;;;;;2.15;0.93;;;;;;;17.44;59.12;98993.03;5105802;28;20468;-68
2023/07/04 09:49:14;;;;;;;4.60;1.83;;;;;;;17.52;59.46;98994.38;5087556;28;20087;-69
2023/07/04 09:51:40;;;;;;;2.25;0.73;;;;;;;17.62;58.91;99000.75;5105841;28;20027;-68
2023/07/04 09:54:13;;;;;;;9.32;1.02;;;;;;;17.51;59.34;99004.03;5105100;28;20020;-68
2023/07/04 09:56:40;;;;;;;1.27;0.47;;;;;;;17.36;59.89;99016.28;5087741;28;20023;-70
2023/07/04 09:59:26;;;;;;;2.08;0.73;;;;;;;17.48;59.71;99014.69;5083038;22;20152;-60
2023/07/04 10:01:57;;;;;;;1.90;0.63;;;;;;;17.55;58.38;99021.28;5065543;28;20082;-61
2023/07/04 10:04:26;;;;;;;1.13;0.68;;;;;;;17.69;56.83;99037.97;5065486;28;20020;-62
2023/07/04 10:06:53;;;;;;;1.48;0.82;;;;;;;17.68;56.55;99034.47;5065500;28;20111;-62
2023/07/04 10:09:20;;;;;;;3.25;1.15;;;;;;;17.56;56.31;99043.09;5065520;28;20021;-62
2023/07/04 10:11:51;;;;;;;3.95;0.60;;;;;;;17.45;57.27;99047.22;5065599;28;20048;-62
2023/07/04 10:14:32;;;;;;;1.00;0.63;;;;;;;17.44;57.87;99044.69;5065418;28;20465;-62
2023/07/04 10:17:08;;;;;;;2.95;0.60;;;;;;;17.41;58.50;99039.63;5065279;28;20052;-61
2023/07/04 10:19:40;;;;;;;1.48;0.90;;;;;;;17.33;59.28;99033.03;5065457;28;20024;-61
2023/07/04 10:22:06;;;;;;;6.63;1.80;;;;;;;17.47;60.12;99034.00;5065506;28;20021;-62
2023/07/04 10:24:33;;;;;;;1.55;0.88;;;;;;;17.74;59.44;99043.78;5065148;28;20021;-61
2023/07/04 10:27:02;;;;;;;7.13;1.60;;;;;;;18.14;58.58;99032.66;5065193;28;20040;-62
2023/07/04 10:29:40;;;;;;;1.30;0.80;;;;;;;18.71;54.62;99032.59;5065178;28;20024;-62
2023/07/04 10:32:13;;;;;;;0.50;0.30;;;;;;;19.50;52.27;99031.88;5065397;28;20029;-62
2023/07/04 10:34:40;;;;;;;1.50;0.55;;;;;;;20.35;50.31;99040.13;5031348;28;20048;-62
2023/07/04 10:37:09;;;;;;;0.95;0.50;;;;;;;20.48;49.65;99039.25;5065109;28;20485;-62
2023/07/04 10:39:38;;;;;;;1.73;0.50;;;;;;;20.28;51.64;99041.53;5064897;28;20056;-61
2023/07/04 10:42:17;;;;;;;3.58;1.58;;;;;;;20.36;52.50;99046.25;5064781;28;20049;-60
2023/07/04 10:44:46;;;;;;;2.03;0.50;;;;;;;20.65;51.63;99052.06;5064649;28;20024;-60
2023/07/04 10:47:22;;;;;;;0.50;0.40;;;;;;;20.83;50.62;99051.66;5065022;28;20036;-61
2023/07/04 10:49:54;;;;;;;1.40;0.45;;;;;;;21.07;50.53;99039.44;5065127;28;20021;-62
2023/07/04 10:52:24;;;;;;;0.60;0.60;;;;;;;20.78;50.07;99054.63;5064943;28;20025;-61
2023/07/04 10:54:49;;;;;;;2.28;1.15;;;;;;;20.67;50.38;99049.31;5065089;28;20044;-61
2023/07/04 10:57:35;;;;;;;1.63;0.50;;;;;;;20.36;50.99;99046.25;5065010;28;20025;-61
2023/07/04 11:00:17;;;;;;;1.10;0.60;;;;;;;20.04;51.27;99044.94;5082224;28;20105;-61
2023/07/04 11:02:57;;;;;;;5.35;0.65;;;;;;;19.50;52.68;99057.34;5084831;28;20423;-63
2023/07/04 11:05:37;;;;;;;2.28;0.70;;;;;;;19.11;54.09;99059.91;5087440;28;20029;-63
2023/07/04 11:08:07;;;;;;;2.03;1.08;;;;;;;18.94;55.20;99052.16;5088977;28;20021;-61
2023/07/04 11:10:39;;;;;;;0.70;0.70;;;;;;;18.81;55.27;99041.59;5088942;28;20024;-61
2023/07/04 11:13:05;;;;;;;0.80;0.60;;;;;;;18.64;55.75;99034.78;5088848;28;20067;-62
2023/07/04 11:15:36;;;;;;;1.38;0.68;;;;;;;18.39;56.05;99041.59;5088791;28;20012;-62
2023/07/04 11:18:02;;;;;;;1.80;0.70;;;;;;;18.00;56.82;99045.75;5088784;28;20020;-61
2023/07/04 11:20:51;;;;;;;4.63;1.15;;;;;;;17.69;58.37;99037.97;5088861;28;20548;-62
2023/07/04 11:23:19;;;;;;;0.50;0.43;;;;;;;17.35;59.54;99056.53;5079096;28;20044;-62
2023/07/04 11:25:45;;;;;;;0.32;0.32;;;;;;;16.92;59.46;99054.59;5088688;28;20039;-62
2023/07/04 11:28:22;;;;;;;3.08;0.82;;;;;;;16.34;61.66;99082.16;5088746;28;20028;-61
2023/07/04 11:30:49;;;;;;;2.42;0.52;;;;;;;15.69;63.57;99078.50;5088520;28;20417;-61
2023/07/04 11:33:37;;;;;;;3.13;1.55;;;;;;;15.17;66.61;99087.19;5088746;28;20032;-61
2023/07/04 11:36:06;;;;;;;1.15;0.70;;;;;;;14.82;67.66;99094.06;5088500;28;20021;-62
2023/07/04 11:38:32;;;;;;;0.75;0.75;;;;;;;14.47;70.24;99091.28;5088579;28;20020;-62
2023/07/04 11:41:00;;;;;;;5.03;1.00;;;;;;;14.29;72.34;99092.97;5070619;28;20071;-62
2023/07/04 11:43:29;;;;;;;4.60;0.70;;;;;;;14.23;72.57;99104.53;5088293;28;20024;-62